Terminal Aerodrome Forecast
Issued by NWS Shreveport, LA

Home | Current Version | Previous Version | Text Only | Print | Product List | Glossary On
Versions: 1 2 3 4 5 6 7 8 9 10 11 12 13 14 15 16 17 18 19 20 21 22 23 24 25 26 27 28 29 30 31 32 33 34 35
992
FTUS44 KSHV 290525
TAFSHV
TAF
KSHV 290525Z 2906/3006 00000KT P6SM SCT180 BKN250
      TEMPO 2910/2913 5SM BR BKN005
     FM291300 22005KT P6SM SCT010 SCT180 BKN250
     FM291600 23007KT P6SM SCT035 SCT250
     FM291800 22007KT P6SM SCT045 SCT250
     FM300000 18005KT P6SM FEW060 SCT250=

USA.gov is the U.S. government's official web portal to all federal, state and local government web resources and services.